createdAt,value
2023-03-25T00:00:20.896Z,22.55
2023-03-25T00:02:50.663Z,14.20
2023-03-25T00:05:21.160Z,16.10
2023-03-25T00:07:53.057Z,19.48
2023-03-25T00:10:21.478Z,24.77
2023-03-25T00:12:49.441Z,14.73
2023-03-25T00:15:17.945Z,17.92
2023-03-25T00:17:46.277Z,21.35
2023-03-25T00:20:14.607Z,16.95
2023-03-25T00:22:44.249Z,22.88
2023-03-25T00:25:19.276Z,18.40
2023-03-25T00:27:49.075Z,19.08
2023-03-25T00:30:18.034Z,17.08
2023-03-25T00:32:50.220Z,19.08
2023-03-25T00:35:19.548Z,17.83
2023-03-25T00:37:57.458Z,18.60
2023-03-25T00:40:28.482Z,19.65
2023-03-25T00:42:56.728Z,18.90
2023-03-25T00:45:25.346Z,22.85
2023-03-25T00:47:53.458Z,18.35
2023-03-25T00:50:22.191Z,21.00
2023-03-25T00:52:51.613Z,21.10
2023-03-25T00:55:20.119Z,24.83
2023-03-25T00:57:49.567Z,20.45
2023-03-25T01:00:19.515Z,16.40
2023-03-25T01:02:53.793Z,18.00
2023-03-25T01:05:22.424Z,20.15
2023-03-25T01:07:51.819Z,16.20
2023-03-25T01:10:20.155Z,24.05
2023-03-25T01:12:50.019Z,25.25
2023-03-25T01:15:18.014Z,27.35
2023-03-25T01:17:46.026Z,26.80
2023-03-25T01:20:14.594Z,18.42
2023-03-25T01:22:42.553Z,21.25
2023-03-25T01:25:10.824Z,23.25
2023-03-25T01:27:38.882Z,16.83
2023-03-25T01:30:09.821Z,21.17
2023-03-25T01:32:37.901Z,22.33
2023-03-25T01:35:07.604Z,20.75
2023-03-25T01:37:36.503Z,22.45
2023-03-25T01:40:07.907Z,18.70
2023-03-25T01:42:36.148Z,18.90
2023-03-25T01:45:22.445Z,21.73
2023-03-25T01:47:56.217Z,28.23
2023-03-25T01:50:28.910Z,22.60
2023-03-25T01:52:59.670Z,19.85
2023-03-25T01:55:28.425Z,23.20
2023-03-25T01:57:59.673Z,25.23
2023-03-25T02:00:29.246Z,22.63
2023-03-25T02:03:00.470Z,25.27
2023-03-25T02:05:35.975Z,23.77
2023-03-25T02:08:09.207Z,28.92
2023-03-25T02:10:38.270Z,26.80
2023-03-25T02:13:08.634Z,29.15
2023-03-25T02:15:59.455Z,26.83
2023-03-25T02:18:38.310Z,27.90
2023-03-25T02:21:55.203Z,25.88
2023-03-25T02:24:57.846Z,33.53
2023-03-25T02:27:45.988Z,28.63
2023-03-25T02:30:39.107Z,31.13
2023-03-25T02:33:31.988Z,29.40
2023-03-25T02:36:30.299Z,33.95
2023-03-25T02:39:03.899Z,25.08
2023-03-25T02:41:40.824Z,33.60
2023-03-25T02:44:15.427Z,32.35
2023-03-25T02:46:49.000Z,32.50
2023-03-25T02:49:21.612Z,31.50
2023-03-25T02:51:56.431Z,32.47
2023-03-25T02:54:28.739Z,31.00
2023-03-25T02:56:58.441Z,32.95
2023-03-25T02:59:30.334Z,35.30
2023-03-25T03:01:59.869Z,38.92
2023-03-25T03:04:27.853Z,31.45
2023-03-25T03:06:57.995Z,33.55
2023-03-25T03:09:41.133Z,30.13
2023-03-25T03:12:22.355Z,26.98
2023-03-25T03:15:08.032Z,23.40
2023-03-25T03:17:43.916Z,24.27
2023-03-25T03:20:20.302Z,27.77
2023-03-25T03:22:53.158Z,30.48
2023-03-25T03:25:33.883Z,32.75
2023-03-25T03:28:07.247Z,33.20
2023-03-25T03:30:43.985Z,36.25
2023-03-25T03:33:21.830Z,35.53
2023-03-25T03:35:57.691Z,37.25
2023-03-25T03:38:28.851Z,32.53
2023-03-25T03:41:02.624Z,30.08
2023-03-25T03:43:36.256Z,41.22
2023-03-25T03:46:08.564Z,33.03
2023-03-25T03:51:11.739Z,35.67
2023-03-25T03:53:43.181Z,34.70
2023-03-25T03:56:16.487Z,36.45
2023-03-25T03:58:45.272Z,29.40
2023-03-25T04:01:16.408Z,32.38
2023-03-25T04:03:51.169Z,31.60
2023-03-25T04:06:24.664Z,34.17
2023-03-25T04:08:59.754Z,35.13
2023-03-25T04:11:36.716Z,24.83
2023-03-25T04:14:06.683Z,33.03
2023-03-25T04:16:37.460Z,41.58
2023-03-25T04:19:06.318Z,35.03
2023-03-25T04:21:35.066Z,39.70
2023-03-25T04:24:04.640Z,35.30
2023-03-25T04:26:37.619Z,42.28
2023-03-25T04:29:06.021Z,38.50
2023-03-25T04:31:34.421Z,42.10
2023-03-25T04:34:04.507Z,34.30
2023-03-25T04:36:33.825Z,34.80
2023-03-25T04:39:02.252Z,37.05
2023-03-25T04:41:31.995Z,36.85
2023-03-25T04:44:01.477Z,34.78
2023-03-25T04:46:29.774Z,34.58
2023-03-25T04:48:57.973Z,37.50
2023-03-25T04:51:26.111Z,38.50
2023-03-25T04:53:54.112Z,34.78
2023-03-25T04:56:23.424Z,33.03
2023-03-25T04:58:51.734Z,32.58
2023-03-25T05:01:30.988Z,40.22
2023-03-25T05:04:05.560Z,39.17
2023-03-25T05:06:34.476Z,39.42
2023-03-25T05:09:04.391Z,29.08
2023-03-25T05:11:34.891Z,35.80
2023-03-25T05:14:02.951Z,29.05
2023-03-25T05:16:32.363Z,38.90
2023-03-25T05:19:00.562Z,33.00
2023-03-25T05:21:28.589Z,37.22
2023-03-25T05:23:58.087Z,32.60
2023-03-25T05:26:29.456Z,40.15
2023-03-25T05:29:01.540Z,34.10
2023-03-25T05:31:29.996Z,34.15
2023-03-25T05:33:59.414Z,32.30
2023-03-25T05:36:27.599Z,29.50
2023-03-25T05:38:56.817Z,30.73
2023-03-25T05:41:32.487Z,33.65
2023-03-25T05:44:01.096Z,31.70
2023-03-25T05:46:30.751Z,32.85
2023-03-25T05:49:01.947Z,33.00
2023-03-25T05:51:33.763Z,39.17
2023-03-25T05:54:02.248Z,33.20
2023-03-25T05:56:31.200Z,30.17
2023-03-25T05:58:59.700Z,32.80
2023-03-25T06:04:02.401Z,32.38
2023-03-25T06:06:32.345Z,31.67
2023-03-25T06:09:00.585Z,36.40
2023-03-25T06:11:29.561Z,33.40
2023-03-25T06:14:02.770Z,31.35
2023-03-25T06:16:31.540Z,35.05
2023-03-25T06:19:01.351Z,30.17
2023-03-25T06:21:32.833Z,32.67
2023-03-25T06:24:01.793Z,27.53
2023-03-25T06:26:30.126Z,32.65
2023-03-25T06:28:58.469Z,31.35
2023-03-25T06:31:27.815Z,26.02
2023-03-25T06:33:57.014Z,24.02
2023-03-25T06:36:27.352Z,29.77
2023-03-25T06:38:55.804Z,31.05
2023-03-25T06:41:25.168Z,22.58
2023-03-25T06:43:53.411Z,34.63
2023-03-25T06:46:21.794Z,25.33
2023-03-25T06:48:50.667Z,28.17
2023-03-25T06:51:18.598Z,37.95
2023-03-25T06:53:48.003Z,26.67
2023-03-25T06:56:17.548Z,28.17
2023-03-25T06:58:46.757Z,29.90
2023-03-25T07:01:15.278Z,29.80
2023-03-25T07:03:43.458Z,27.80
2023-03-25T07:06:17.621Z,23.27
2023-03-25T07:08:47.301Z,29.55
2023-03-25T07:11:17.403Z,29.65
2023-03-25T07:13:45.644Z,28.55
2023-03-25T07:16:14.604Z,27.90
2023-03-25T07:18:43.045Z,25.83
2023-03-25T07:21:11.391Z,26.60
2023-03-25T07:23:39.541Z,29.90
2023-03-25T07:26:09.576Z,31.45
2023-03-25T07:28:39.031Z,29.25
2023-03-25T07:31:08.869Z,28.98
2023-03-25T07:33:37.258Z,25.00
2023-03-25T07:36:07.703Z,29.20
2023-03-25T07:38:36.931Z,26.50
2023-03-25T07:41:11.388Z,24.98
2023-03-25T07:43:39.709Z,37.60
2023-03-25T07:46:08.431Z,33.35
2023-03-25T07:48:37.105Z,33.22
2023-03-25T07:51:05.725Z,25.85
2023-03-25T07:53:33.952Z,26.38
2023-03-25T07:56:02.411Z,27.00
2023-03-25T07:58:32.377Z,28.90
2023-03-25T08:01:00.827Z,26.30
2023-03-25T08:03:29.135Z,30.58
2023-03-25T08:05:57.610Z,28.48
2023-03-25T08:08:26.093Z,28.52
2023-03-25T08:10:54.597Z,27.45
2023-03-25T08:13:23.250Z,27.70
2023-03-25T08:15:53.628Z,28.65
2023-03-25T08:18:22.053Z,26.95
2023-03-25T08:20:50.860Z,29.88
2023-03-25T08:23:20.196Z,22.60
2023-03-25T08:25:50.465Z,24.00
2023-03-25T08:28:22.519Z,34.97
2023-03-25T08:30:55.958Z,30.08
2023-03-25T08:33:27.093Z,25.92
2023-03-25T08:35:58.078Z,21.70
2023-03-25T08:38:33.893Z,27.33
2023-03-25T08:41:02.819Z,26.10
2023-03-25T08:43:31.085Z,31.30
2023-03-25T08:46:00.800Z,36.83
2023-03-25T08:48:29.137Z,30.48
2023-03-25T08:50:57.332Z,25.00
2023-03-25T08:53:26.608Z,36.33
2023-03-25T08:55:54.892Z,30.83
2023-03-25T08:58:23.318Z,29.30
2023-03-25T09:00:54.465Z,27.02
2023-03-25T09:03:24.759Z,30.27
2023-03-25T09:05:53.255Z,34.60
2023-03-25T09:08:21.720Z,31.05
2023-03-25T09:10:50.010Z,34.72
2023-03-25T09:13:18.219Z,30.40
2023-03-25T09:15:47.538Z,30.95
2023-03-25T09:18:16.737Z,29.13
2023-03-25T09:20:47.931Z,29.63
2023-03-25T09:23:16.279Z,40.92
2023-03-25T09:25:44.539Z,39.38
2023-03-25T09:28:12.709Z,29.67
2023-03-25T09:30:41.252Z,24.73
2023-03-25T09:33:09.473Z,30.48
2023-03-25T09:35:37.831Z,31.23
2023-03-25T09:38:07.648Z,39.35
2023-03-25T09:40:36.332Z,36.72
2023-03-25T09:43:19.187Z,29.10
2023-03-25T09:45:48.542Z,25.45
2023-03-25T09:48:27.069Z,29.50
2023-03-25T09:50:55.099Z,30.88
2023-03-25T09:53:30.452Z,29.33
2023-03-25T09:55:59.732Z,32.05
2023-03-25T09:58:39.914Z,30.83
2023-03-25T10:01:18.924Z,25.17
2023-03-25T10:03:56.924Z,27.10
2023-03-25T10:06:26.713Z,35.55
2023-03-25T10:09:18.229Z,26.67
2023-03-25T10:11:56.040Z,30.70
2023-03-25T10:14:28.878Z,27.80
2023-03-25T10:17:11.222Z,28.67
2023-03-25T10:19:51.160Z,34.42
2023-03-25T10:22:22.756Z,32.42
2023-03-25T10:24:57.025Z,32.08
2023-03-25T10:27:31.850Z,35.90
2023-03-25T10:30:11.232Z,25.67
2023-03-25T10:32:42.401Z,30.95
2023-03-25T10:35:17.105Z,26.42
2023-03-25T10:37:47.694Z,27.88
2023-03-25T10:40:23.275Z,31.95
2023-03-25T10:43:07.082Z,34.05
2023-03-25T10:45:36.642Z,32.40
2023-03-25T10:48:12.397Z,29.52
2023-03-25T10:50:42.792Z,27.73
2023-03-25T10:53:21.490Z,33.67
2023-03-25T10:55:58.088Z,27.90
2023-03-25T10:58:27.077Z,30.20
2023-03-25T11:00:55.204Z,30.55
2023-03-25T11:03:28.203Z,30.17
2023-03-25T11:05:57.080Z,23.27
2023-03-25T11:08:25.757Z,25.90
2023-03-25T11:10:57.983Z,30.65
2023-03-25T11:13:28.017Z,27.92
2023-03-25T11:15:59.726Z,29.75
2023-03-25T11:18:30.024Z,31.23
2023-03-25T11:21:02.113Z,30.83
2023-03-25T11:23:33.678Z,39.78
2023-03-25T11:26:08.243Z,33.33
2023-03-25T11:28:40.376Z,28.00
2023-03-25T11:31:14.935Z,33.45
2023-03-25T11:33:44.398Z,23.33
2023-03-25T11:36:21.792Z,24.58
2023-03-25T11:38:54.644Z,28.60
2023-03-25T11:41:24.433Z,23.98
2023-03-25T11:43:52.443Z,28.83
2023-03-25T11:46:22.523Z,24.83
2023-03-25T11:48:51.440Z,26.05
2023-03-25T11:51:22.948Z,24.25
2023-03-25T11:53:57.566Z,22.73
2023-03-25T11:56:34.253Z,23.95
2023-03-25T11:59:03.326Z,24.17
2023-03-25T12:01:49.210Z,29.92
2023-03-25T12:04:20.905Z,28.67
2023-03-25T12:06:58.679Z,23.77
2023-03-25T12:09:30.328Z,21.42
2023-03-25T12:12:21.641Z,29.33
2023-03-25T12:14:55.927Z,31.88
2023-03-25T12:17:30.996Z,26.83
2023-03-25T12:20:11.402Z,21.60
2023-03-25T12:22:54.140Z,23.50
2023-03-25T12:25:29.932Z,27.48
2023-03-25T12:28:16.386Z,28.73
2023-03-25T12:30:57.742Z,34.60
2023-03-25T12:33:40.501Z,28.42
2023-03-25T12:36:19.400Z,29.05
2023-03-25T12:38:58.170Z,23.65
2023-03-25T12:41:32.845Z,26.90
2023-03-25T12:44:11.218Z,25.38
2023-03-25T12:47:00.713Z,23.52
2023-03-25T12:49:46.418Z,26.73
2023-03-25T12:52:22.574Z,28.05
2023-03-25T12:55:03.791Z,25.73
2023-03-25T12:57:48.654Z,26.85
2023-03-25T13:00:29.344Z,27.48
2023-03-25T13:03:35.844Z,26.13
2023-03-25T13:06:13.673Z,26.50
2023-03-25T13:08:47.130Z,29.20
2023-03-25T13:11:19.310Z,28.40
2023-03-25T13:13:51.782Z,16.63
2023-03-25T13:16:25.001Z,26.95
2023-03-25T13:19:01.638Z,25.90
2023-03-25T13:21:32.198Z,26.17
2023-03-25T13:24:06.201Z,28.55
2023-03-25T13:26:36.076Z,27.35
2023-03-25T13:29:07.114Z,35.85
2023-03-25T13:31:40.326Z,33.42
2023-03-25T13:34:22.846Z,28.20
2023-03-25T13:39:32.057Z,22.42
2023-03-25T13:42:06.428Z,31.10
2023-03-25T13:44:40.379Z,34.58
2023-03-25T13:47:18.104Z,35.63
2023-03-25T13:49:52.731Z,23.60
2023-03-25T13:52:21.049Z,23.00
2023-03-25T13:54:54.813Z,26.83
2023-03-25T13:57:58.768Z,22.67
2023-03-25T14:00:52.697Z,27.42
2023-03-25T14:03:57.057Z,22.45
2023-03-25T14:06:55.118Z,22.00
2023-03-25T14:09:55.579Z,17.75
2023-03-25T14:12:29.160Z,19.27
2023-03-25T14:15:04.199Z,20.98
2023-03-25T14:17:35.664Z,16.10
2023-03-25T14:20:08.356Z,17.35
2023-03-25T14:22:43.832Z,22.50
2023-03-25T14:25:22.534Z,19.55
2023-03-25T14:27:52.380Z,19.50
2023-03-25T14:30:23.485Z,25.88
2023-03-25T14:32:52.983Z,22.08
2023-03-25T14:35:50.383Z,23.98
2023-03-25T14:38:54.280Z,26.02
2023-03-25T14:41:57.142Z,23.83
2023-03-25T14:44:29.314Z,24.83
2023-03-25T14:49:56.305Z,29.88
2023-03-25T14:52:31.372Z,28.15
2023-03-25T14:55:08.039Z,30.70
2023-03-25T14:57:42.670Z,29.40
2023-03-25T15:00:21.200Z,32.72
2023-03-25T15:02:54.460Z,31.67
2023-03-25T15:05:27.597Z,33.30
2023-03-25T15:08:00.246Z,30.50
2023-03-25T15:10:33.117Z,35.50
2023-03-25T15:13:05.038Z,24.77
2023-03-25T15:15:54.211Z,34.70
2023-03-25T15:18:56.024Z,34.10
2023-03-25T15:21:26.204Z,27.15
2023-03-25T15:24:01.569Z,26.83
2023-03-25T15:26:34.570Z,24.02
2023-03-25T15:29:31.498Z,23.25
2023-03-25T15:32:19.517Z,24.00
2023-03-25T15:35:06.330Z,35.63
2023-03-25T15:38:03.523Z,39.22
2023-03-25T15:40:35.824Z,28.45
2023-03-25T15:46:11.049Z,34.25
2023-03-25T15:49:23.817Z,28.80
2023-03-25T15:52:04.619Z,34.45
2023-03-25T15:54:36.567Z,30.15
2023-03-25T15:57:14.492Z,29.38
2023-03-25T15:59:46.468Z,33.88
2023-03-25T16:02:22.954Z,30.48
2023-03-25T16:04:52.162Z,33.33
2023-03-25T16:07:24.364Z,29.67
2023-03-25T16:12:22.984Z,33.03
2023-03-25T16:14:53.117Z,34.35
2023-03-25T16:17:26.314Z,30.85
2023-03-25T16:19:56.917Z,35.53
2023-03-25T16:22:28.598Z,31.58
2023-03-25T16:24:59.504Z,33.70
2023-03-25T16:27:31.533Z,38.97
2023-03-25T16:30:01.488Z,38.40
2023-03-25T16:32:34.531Z,29.70
2023-03-25T16:35:04.681Z,30.73
2023-03-25T16:37:34.189Z,39.30
2023-03-25T16:40:07.288Z,33.65
2023-03-25T16:42:36.628Z,30.52
2023-03-25T16:45:10.402Z,36.45
2023-03-25T16:47:38.900Z,33.72
2023-03-25T16:50:08.584Z,33.20
2023-03-25T16:52:38.020Z,27.90
2023-03-25T16:55:30.069Z,28.40
2023-03-25T16:58:01.488Z,22.75
2023-03-25T17:00:41.959Z,21.87
2023-03-25T17:03:15.933Z,21.85
2023-03-25T17:06:01.306Z,27.02
2023-03-25T17:08:29.627Z,30.70
2023-03-25T17:10:59.832Z,29.90
2023-03-25T17:13:32.099Z,31.13
2023-03-25T17:16:02.130Z,27.52
2023-03-25T17:18:33.246Z,30.60
2023-03-25T17:21:02.676Z,36.25
2023-03-25T17:23:37.237Z,37.60
2023-03-25T17:26:08.364Z,37.92
2023-03-25T17:28:39.973Z,34.80
2023-03-25T17:31:29.948Z,29.85
2023-03-25T17:34:03.052Z,29.13
2023-03-25T17:36:33.188Z,37.30
2023-03-25T17:39:04.512Z,35.97
2023-03-25T17:41:40.097Z,30.33
2023-03-25T17:44:09.138Z,39.28
2023-03-25T17:46:38.659Z,33.92
2023-03-25T17:49:15.914Z,31.98
2023-03-25T17:51:44.826Z,34.00
2023-03-25T17:54:13.168Z,27.73
2023-03-25T17:56:43.086Z,35.75
2023-03-25T17:59:17.993Z,32.63
2023-03-25T18:01:50.299Z,28.90
2023-03-25T18:06:48.439Z,38.55
2023-03-25T18:09:18.537Z,35.72
2023-03-25T18:11:49.003Z,37.45
2023-03-25T18:14:17.076Z,36.22
2023-03-25T18:16:45.400Z,33.50
2023-03-25T18:19:18.047Z,30.70
2023-03-25T18:21:46.578Z,32.67
2023-03-25T18:24:15.690Z,37.15
2023-03-25T18:26:44.836Z,31.02
2023-03-25T18:29:18.288Z,31.83
2023-03-25T18:31:46.520Z,32.97
2023-03-25T18:34:17.175Z,34.15
2023-03-25T18:36:45.738Z,26.60
2023-03-25T18:39:16.736Z,38.70
2023-03-25T18:41:45.673Z,32.70
2023-03-25T18:44:14.129Z,35.95
2023-03-25T18:46:42.770Z,30.50
2023-03-25T18:49:14.263Z,31.83
2023-03-25T18:51:44.004Z,28.07
2023-03-25T18:54:12.173Z,37.75
2023-03-25T18:56:42.467Z,24.13
2023-03-25T18:59:11.633Z,20.88
2023-03-25T19:01:39.673Z,21.88
2023-03-25T19:04:09.287Z,24.05
2023-03-25T19:06:39.261Z,18.50
2023-03-25T19:09:10.089Z,17.65
2023-03-25T19:11:38.099Z,44.15
2023-03-25T19:14:06.152Z,21.25
2023-03-25T19:16:34.211Z,16.10
2023-03-25T19:19:04.855Z,20.92
2023-03-25T19:21:32.825Z,20.48
2023-03-25T19:24:00.770Z,20.88
2023-03-25T19:26:30.548Z,16.95
2023-03-25T19:28:58.622Z,18.27
2023-03-25T19:31:26.705Z,20.73
2023-03-25T19:33:54.769Z,17.17
2023-03-25T19:36:23.141Z,22.40
2023-03-25T19:38:53.092Z,19.92
2023-03-25T19:41:21.321Z,34.58
2023-03-25T19:43:50.779Z,14.73
2023-03-25T19:46:19.201Z,18.98
2023-03-25T19:48:47.438Z,22.88
2023-03-25T19:51:15.508Z,22.73
2023-03-25T19:53:43.560Z,34.47
2023-03-25T19:56:13.977Z,17.15
2023-03-25T19:58:42.229Z,16.05
2023-03-25T20:01:12.161Z,21.05
2023-03-25T20:03:41.196Z,41.88
2023-03-25T20:06:10.002Z,17.95
2023-03-25T20:08:38.034Z,14.15
2023-03-25T20:11:10.806Z,20.27
2023-03-25T20:13:39.659Z,15.25
2023-03-25T20:16:08.931Z,16.25
2023-03-25T20:18:39.025Z,20.15
2023-03-25T20:21:08.034Z,18.17
2023-03-25T20:23:36.141Z,18.27
2023-03-25T20:26:04.453Z,14.63
2023-03-25T20:28:32.607Z,13.20
2023-03-25T20:31:00.655Z,15.75
2023-03-25T20:33:28.765Z,14.80
2023-03-25T20:35:58.275Z,14.88
2023-03-25T20:38:26.451Z,18.38
2023-03-25T20:40:55.560Z,16.13
2023-03-25T20:43:23.598Z,14.13
2023-03-25T20:45:55.626Z,14.25
2023-03-25T20:48:25.302Z,15.77
2023-03-25T20:51:01.615Z,11.07
2023-03-25T20:53:30.352Z,14.73
2023-03-25T20:56:00.089Z,11.20
2023-03-25T20:58:29.400Z,12.15
2023-03-25T21:00:59.005Z,11.63
2023-03-25T21:03:27.712Z,21.27
2023-03-25T21:06:03.057Z,8.23
2023-03-25T21:08:37.139Z,18.98
2023-03-25T21:11:06.899Z,13.35
2023-03-25T21:13:35.776Z,14.98
2023-03-25T21:16:04.588Z,17.15
2023-03-25T21:18:32.826Z,14.27
2023-03-25T21:21:02.654Z,19.55
2023-03-25T21:23:32.110Z,17.55
2023-03-25T21:26:09.112Z,17.38
2023-03-25T21:28:38.883Z,14.48
2023-03-25T21:31:09.121Z,17.92
2023-03-25T21:33:38.581Z,19.90
2023-03-25T21:36:09.110Z,14.32
2023-03-25T21:38:37.816Z,14.77
2023-03-25T21:41:09.521Z,19.77
2023-03-25T21:43:42.292Z,32.78
2023-03-25T21:46:11.518Z,20.77
2023-03-25T21:48:44.758Z,14.27
2023-03-25T21:51:15.544Z,15.75
2023-03-25T21:53:45.484Z,11.45
2023-03-25T21:56:19.474Z,11.70
2023-03-25T21:58:48.589Z,11.95
2023-03-25T22:01:19.730Z,10.77
2023-03-25T22:03:48.914Z,9.65
2023-03-25T22:06:19.800Z,10.45
2023-03-25T22:08:48.469Z,11.55
2023-03-25T22:11:20.203Z,11.10
2023-03-25T22:13:48.636Z,15.40
2023-03-25T22:16:18.483Z,11.23
2023-03-25T22:18:47.527Z,13.10
2023-03-25T22:21:17.797Z,13.23
2023-03-25T22:23:47.655Z,20.60
2023-03-25T22:26:18.344Z,15.50
2023-03-25T22:28:47.640Z,14.02
2023-03-25T22:31:18.323Z,20.08
2023-03-25T22:33:49.121Z,11.20
2023-03-25T22:36:17.627Z,15.15
2023-03-25T22:38:47.617Z,16.35
2023-03-25T22:41:18.169Z,15.80
2023-03-25T22:43:48.099Z,20.58
2023-03-25T22:46:16.645Z,16.42
2023-03-25T22:48:44.779Z,19.98
2023-03-25T22:51:14.621Z,18.77
2023-03-25T22:53:42.890Z,19.85
2023-03-25T22:56:11.929Z,19.60
2023-03-25T22:58:41.968Z,18.88
2023-03-25T23:01:19.903Z,14.80
2023-03-25T23:03:48.506Z,16.73
2023-03-25T23:06:17.419Z,20.17
2023-03-25T23:08:45.646Z,11.75
2023-03-25T23:11:17.257Z,17.10
2023-03-25T23:13:49.382Z,15.77
2023-03-25T23:16:18.756Z,13.95
2023-03-25T23:18:47.480Z,17.38
2023-03-25T23:21:17.659Z,14.13
2023-03-25T23:23:52.820Z,12.82
2023-03-25T23:26:24.742Z,12.82
2023-03-25T23:29:00.714Z,12.68
2023-03-25T23:31:33.952Z,11.88
2023-03-25T23:34:05.344Z,13.82
2023-03-25T23:36:36.326Z,11.82
2023-03-25T23:39:06.481Z,16.13
2023-03-25T23:41:35.570Z,17.63
2023-03-25T23:44:06.029Z,13.60
2023-03-25T23:46:34.729Z,17.00
2023-03-25T23:49:03.778Z,15.65
2023-03-25T23:51:35.220Z,20.42
2023-03-25T23:54:04.013Z,20.15
2023-03-25T23:56:32.474Z,18.83
2023-03-25T23:59:01.637Z,17.85
